sensor_id;sensor_type;location;lat;lon;timestamp;temperature;humidity
22908;DHT22;11620;50.050;8.690;2023-04-09T00:00:38;7.50;99.90
22908;DHT22;11620;50.050;8.690;2023-04-09T00:03:25;7.50;99.90
22908;DHT22;11620;50.050;8.690;2023-04-09T00:06:11;7.50;99.90
22908;DHT22;11620;50.050;8.690;2023-04-09T00:08:58;7.50;99.90
22908;DHT22;11620;50.050;8.690;2023-04-09T00:11:44;7.40;99.90
22908;DHT22;11620;50.050;8.690;2023-04-09T00:14:30;7.30;99.90
22908;DHT22;11620;50.050;8.690;2023-04-09T00:17:17;7.30;99.90
22908;DHT22;11620;50.050;8.690;2023-04-09T00:20:03;7.20;99.90
22908;DHT22;11620;50.050;8.690;2023-04-09T00:22:50;7.20;99.90
22908;DHT22;11620;50.050;8.690;2023-04-09T00:25:37;7.10;99.90
22908;DHT22;11620;50.050;8.690;2023-04-09T00:28:23;7.10;99.90
22908;DHT22;11620;50.050;8.690;2023-04-09T00:31:09;7.10;99.90
22908;DHT22;11620;50.050;8.690;2023-04-09T00:33:56;7.10;99.90
22908;DHT22;11620;50.050;8.690;2023-04-09T00:36:42;7.10;99.90
22908;DHT22;11620;50.050;8.690;2023-04-09T00:39:28;7.20;99.90
22908;DHT22;11620;50.050;8.690;2023-04-09T00:42:15;7.20;99.90
22908;DHT22;11620;50.050;8.690;2023-04-09T00:45:02;7.20;99.90
22908;DHT22;11620;50.050;8.690;2023-04-09T00:47:48;7.20;99.90
22908;DHT22;11620;50.050;8.690;2023-04-09T00:50:35;7.10;99.90
22908;DHT22;11620;50.050;8.690;2023-04-09T00:53:21;7.00;99.90
22908;DHT22;11620;50.050;8.690;2023-04-09T00:56:09;7.00;99.90
22908;DHT22;11620;50.050;8.690;2023-04-09T00:58:56;6.90;99.90
22908;DHT22;11620;50.050;8.690;2023-04-09T01:01:43;6.90;99.90
22908;DHT22;11620;50.050;8.690;2023-04-09T01:04:29;6.80;99.90
22908;DHT22;11620;50.050;8.690;2023-04-09T01:10:50;6.80;99.90
22908;DHT22;11620;50.050;8.690;2023-04-09T01:14:00;6.80;99.90
22908;DHT22;11620;50.050;8.690;2023-04-09T01:20:29;6.80;99.90
22908;DHT22;11620;50.050;8.690;2023-04-09T01:29:30;6.60;99.90
22908;DHT22;11620;50.050;8.690;2023-04-09T01:32:18;6.60;99.90
22908;DHT22;11620;50.050;8.690;2023-04-09T01:35:06;6.60;99.90
22908;DHT22;11620;50.050;8.690;2023-04-09T01:37:53;6.50;99.90
22908;DHT22;11620;50.050;8.690;2023-04-09T01:40:41;6.50;99.90
22908;DHT22;11620;50.050;8.690;2023-04-09T01:43:28;6.50;99.90
22908;DHT22;11620;50.050;8.690;2023-04-09T01:46:17;6.50;99.90
22908;DHT22;11620;50.050;8.690;2023-04-09T01:49:04;6.40;99.90
22908;DHT22;11620;50.050;8.690;2023-04-09T01:51:50;6.40;99.90
22908;DHT22;11620;50.050;8.690;2023-04-09T01:54:37;6.40;99.90
22908;DHT22;11620;50.050;8.690;2023-04-09T01:57:23;6.40;99.90
22908;DHT22;11620;50.050;8.690;2023-04-09T02:00:10;6.40;99.90
22908;DHT22;11620;50.050;8.690;2023-04-09T02:03:20;6.30;99.90
22908;DHT22;11620;50.050;8.690;2023-04-09T02:09:17;6.30;99.90
22908;DHT22;11620;50.050;8.690;2023-04-09T02:12:08;6.20;99.90
22908;DHT22;11620;50.050;8.690;2023-04-09T02:14:55;6.10;99.90
22908;DHT22;11620;50.050;8.690;2023-04-09T02:17:42;6.00;99.90
22908;DHT22;11620;50.050;8.690;2023-04-09T02:20:29;6.00;99.90
22908;DHT22;11620;50.050;8.690;2023-04-09T02:23:16;6.00;99.90
22908;DHT22;11620;50.050;8.690;2023-04-09T02:26:02;5.90;99.90
22908;DHT22;11620;50.050;8.690;2023-04-09T02:28:49;5.90;99.90
22908;DHT22;11620;50.050;8.690;2023-04-09T02:31:35;5.90;99.90
22908;DHT22;11620;50.050;8.690;2023-04-09T02:34:22;5.80;99.90
22908;DHT22;11620;50.050;8.690;2023-04-09T02:37:08;5.80;99.90
22908;DHT22;11620;50.050;8.690;2023-04-09T02:39:54;5.70;99.90
22908;DHT22;11620;50.050;8.690;2023-04-09T02:42:41;5.80;99.90
22908;DHT22;11620;50.050;8.690;2023-04-09T02:45:27;5.70;99.90
22908;DHT22;11620;50.050;8.690;2023-04-09T02:48:13;5.70;99.90
22908;DHT22;11620;50.050;8.690;2023-04-09T02:51:00;5.70;99.90
22908;DHT22;11620;50.050;8.690;2023-04-09T02:53:46;5.60;99.90
22908;DHT22;11620;50.050;8.690;2023-04-09T02:56:32;5.60;99.90
22908;DHT22;11620;50.050;8.690;2023-04-09T02:59:19;5.60;99.90
22908;DHT22;11620;50.050;8.690;2023-04-09T03:02:05;5.50;99.90
22908;DHT22;11620;50.050;8.690;2023-04-09T03:04:51;5.50;99.90
22908;DHT22;11620;50.050;8.690;2023-04-09T03:07:38;5.40;99.90
22908;DHT22;11620;50.050;8.690;2023-04-09T03:10:24;5.40;99.90
22908;DHT22;11620;50.050;8.690;2023-04-09T03:13:10;5.40;99.90
22908;DHT22;11620;50.050;8.690;2023-04-09T03:15:57;5.40;99.90
22908;DHT22;11620;50.050;8.690;2023-04-09T03:18:43;5.40;99.90
22908;DHT22;11620;50.050;8.690;2023-04-09T03:21:30;5.30;99.90
22908;DHT22;11620;50.050;8.690;2023-04-09T03:24:17;5.20;99.90
22908;DHT22;11620;50.050;8.690;2023-04-09T03:27:03;5.20;99.90
22908;DHT22;11620;50.050;8.690;2023-04-09T03:29:49;5.20;99.90
22908;DHT22;11620;50.050;8.690;2023-04-09T03:32:36;5.10;99.90
22908;DHT22;11620;50.050;8.690;2023-04-09T03:35:22;5.10;99.90
22908;DHT22;11620;50.050;8.690;2023-04-09T03:38:08;5.00;99.90
22908;DHT22;11620;50.050;8.690;2023-04-09T03:40:55;5.00;99.90
22908;DHT22;11620;50.050;8.690;2023-04-09T03:43:41;4.90;99.90
22908;DHT22;11620;50.050;8.690;2023-04-09T03:46:28;4.90;99.90
22908;DHT22;11620;50.050;8.690;2023-04-09T03:49:14;4.90;99.90
22908;DHT22;11620;50.050;8.690;2023-04-09T03:52:00;4.90;99.90
22908;DHT22;11620;50.050;8.690;2023-04-09T03:54:47;4.80;99.90
22908;DHT22;11620;50.050;8.690;2023-04-09T03:57:33;4.80;99.90
22908;DHT22;11620;50.050;8.690;2023-04-09T04:00:19;4.80;99.90
22908;DHT22;11620;50.050;8.690;2023-04-09T04:03:06;4.70;99.90
22908;DHT22;11620;50.050;8.690;2023-04-09T04:05:52;4.60;99.90
22908;DHT22;11620;50.050;8.690;2023-04-09T04:08:39;4.60;99.90
22908;DHT22;11620;50.050;8.690;2023-04-09T04:11:25;4.60;99.90
22908;DHT22;11620;50.050;8.690;2023-04-09T04:14:11;4.50;99.90
22908;DHT22;11620;50.050;8.690;2023-04-09T04:16:58;4.50;99.90
22908;DHT22;11620;50.050;8.690;2023-04-09T04:19:44;4.50;99.90
22908;DHT22;11620;50.050;8.690;2023-04-09T04:22:30;4.50;99.90
22908;DHT22;11620;50.050;8.690;2023-04-09T04:25:18;4.50;99.90
22908;DHT22;11620;50.050;8.690;2023-04-09T04:28:04;4.40;99.90
22908;DHT22;11620;50.050;8.690;2023-04-09T04:30:51;4.30;99.90
22908;DHT22;11620;50.050;8.690;2023-04-09T04:33:38;4.30;99.90
22908;DHT22;11620;50.050;8.690;2023-04-09T04:36:25;4.30;99.90
22908;DHT22;11620;50.050;8.690;2023-04-09T04:39:12;4.30;99.90
22908;DHT22;11620;50.050;8.690;2023-04-09T04:41:58;4.30;99.90
22908;DHT22;11620;50.050;8.690;2023-04-09T04:44:44;4.20;99.90
22908;DHT22;11620;50.050;8.690;2023-04-09T04:47:31;4.20;99.90
22908;DHT22;11620;50.050;8.690;2023-04-09T04:50:17;4.10;99.90
22908;DHT22;11620;50.050;8.690;2023-04-09T04:53:04;4.10;99.90
22908;DHT22;11620;50.050;8.690;2023-04-09T04:55:50;4.10;99.90
22908;DHT22;11620;50.050;8.690;2023-04-09T04:58:36;4.00;99.90
22908;DHT22;11620;50.050;8.690;2023-04-09T05:01:23;4.00;99.90
22908;DHT22;11620;50.050;8.690;2023-04-09T05:04:09;4.00;99.90
22908;DHT22;11620;50.050;8.690;2023-04-09T05:06:55;4.00;99.90
22908;DHT22;11620;50.050;8.690;2023-04-09T05:09:42;4.00;99.90
22908;DHT22;11620;50.050;8.690;2023-04-09T05:12:32;4.00;99.90
22908;DHT22;11620;50.050;8.690;2023-04-09T05:15:18;4.00;99.90
22908;DHT22;11620;50.050;8.690;2023-04-09T05:18:05;4.00;99.90
22908;DHT22;11620;50.050;8.690;2023-04-09T05:20:51;4.00;99.90
22908;DHT22;11620;50.050;8.690;2023-04-09T05:23:38;4.00;99.90
22908;DHT22;11620;50.050;8.690;2023-04-09T05:26:24;4.00;99.90
22908;DHT22;11620;50.050;8.690;2023-04-09T05:29:10;4.00;99.90
22908;DHT22;11620;50.050;8.690;2023-04-09T05:31:57;4.00;99.90
22908;DHT22;11620;50.050;8.690;2023-04-09T05:34:44;4.10;99.90
22908;DHT22;11620;50.050;8.690;2023-04-09T05:37:30;4.10;99.90
22908;DHT22;11620;50.050;8.690;2023-04-09T05:40:17;4.20;99.90
22908;DHT22;11620;50.050;8.690;2023-04-09T05:43:03;4.20;99.90
22908;DHT22;11620;50.050;8.690;2023-04-09T05:45:49;4.30;99.90
22908;DHT22;11620;50.050;8.690;2023-04-09T05:48:36;4.30;99.90
22908;DHT22;11620;50.050;8.690;2023-04-09T05:51:22;4.40;99.90
22908;DHT22;11620;50.050;8.690;2023-04-09T05:54:08;4.40;99.90
22908;DHT22;11620;50.050;8.690;2023-04-09T05:56:55;4.50;99.90
22908;DHT22;11620;50.050;8.690;2023-04-09T05:59:41;4.50;99.90
22908;DHT22;11620;50.050;8.690;2023-04-09T06:02:27;4.50;99.90
22908;DHT22;11620;50.050;8.690;2023-04-09T06:05:14;4.50;99.90
22908;DHT22;11620;50.050;8.690;2023-04-09T06:08:00;4.60;99.90
22908;DHT22;11620;50.050;8.690;2023-04-09T06:10:46;4.60;99.90
22908;DHT22;11620;50.050;8.690;2023-04-09T06:13:33;4.70;99.90
22908;DHT22;11620;50.050;8.690;2023-04-09T06:16:19;4.70;99.90
22908;DHT22;11620;50.050;8.690;2023-04-09T06:19:06;4.70;99.90
22908;DHT22;11620;50.050;8.690;2023-04-09T06:21:52;4.70;99.90
22908;DHT22;11620;50.050;8.690;2023-04-09T06:24:38;4.80;99.90
22908;DHT22;11620;50.050;8.690;2023-04-09T06:27:25;4.80;99.90
22908;DHT22;11620;50.050;8.690;2023-04-09T06:30:11;4.90;99.90
22908;DHT22;11620;50.050;8.690;2023-04-09T06:32:58;5.00;99.90
22908;DHT22;11620;50.050;8.690;2023-04-09T06:35:44;5.00;99.90
22908;DHT22;11620;50.050;8.690;2023-04-09T06:38:30;5.10;99.90
22908;DHT22;11620;50.050;8.690;2023-04-09T06:41:20;5.10;99.90
22908;DHT22;11620;50.050;8.690;2023-04-09T06:44:06;5.20;99.90
22908;DHT22;11620;50.050;8.690;2023-04-09T06:46:53;5.20;99.90
22908;DHT22;11620;50.050;8.690;2023-04-09T06:49:39;5.20;99.90
22908;DHT22;11620;50.050;8.690;2023-04-09T06:52:25;5.40;99.90
22908;DHT22;11620;50.050;8.690;2023-04-09T06:55:12;5.40;99.90
22908;DHT22;11620;50.050;8.690;2023-04-09T06:57:58;5.50;99.90
22908;DHT22;11620;50.050;8.690;2023-04-09T07:00:46;5.60;99.90
22908;DHT22;11620;50.050;8.690;2023-04-09T07:03:32;5.60;99.90
22908;DHT22;11620;50.050;8.690;2023-04-09T07:06:18;5.70;99.90
22908;DHT22;11620;50.050;8.690;2023-04-09T07:09:05;5.80;99.90
22908;DHT22;11620;50.050;8.690;2023-04-09T07:11:51;5.90;99.90
22908;DHT22;11620;50.050;8.690;2023-04-09T07:14:38;6.00;99.90
22908;DHT22;11620;50.050;8.690;2023-04-09T07:17:24;6.00;99.90
22908;DHT22;11620;50.050;8.690;2023-04-09T07:20:11;6.10;99.90
22908;DHT22;11620;50.050;8.690;2023-04-09T07:22:57;6.10;99.90
22908;DHT22;11620;50.050;8.690;2023-04-09T07:25:43;6.20;99.90
22908;DHT22;11620;50.050;8.690;2023-04-09T07:28:09;6.20;99.90
22908;DHT22;11620;50.050;8.690;2023-04-09T07:30:36;6.30;99.90
22908;DHT22;11620;50.050;8.690;2023-04-09T07:33:02;6.30;99.90
22908;DHT22;11620;50.050;8.690;2023-04-09T07:35:28;6.50;99.90
22908;DHT22;11620;50.050;8.690;2023-04-09T07:37:54;6.60;99.90
22908;DHT22;11620;50.050;8.690;2023-04-09T07:40:20;6.70;99.90
22908;DHT22;11620;50.050;8.690;2023-04-09T07:42:46;6.80;99.90
22908;DHT22;11620;50.050;8.690;2023-04-09T07:45:13;6.90;99.90
22908;DHT22;11620;50.050;8.690;2023-04-09T07:47:39;7.00;99.90
22908;DHT22;11620;50.050;8.690;2023-04-09T07:50:06;7.10;99.90
22908;DHT22;11620;50.050;8.690;2023-04-09T07:52:32;7.30;99.90
22908;DHT22;11620;50.050;8.690;2023-04-09T07:54:59;7.40;99.90
22908;DHT22;11620;50.050;8.690;2023-04-09T07:57:25;7.50;99.90
22908;DHT22;11620;50.050;8.690;2023-04-09T07:59:52;7.70;99.90
22908;DHT22;11620;50.050;8.690;2023-04-09T08:02:18;7.80;99.90
22908;DHT22;11620;50.050;8.690;2023-04-09T08:04:44;7.90;99.90
22908;DHT22;11620;50.050;8.690;2023-04-09T08:07:10;8.00;99.90
22908;DHT22;11620;50.050;8.690;2023-04-09T08:09:55;8.00;99.90
22908;DHT22;11620;50.050;8.690;2023-04-09T08:12:42;8.20;99.90
22908;DHT22;11620;50.050;8.690;2023-04-09T08:15:28;8.30;99.90
22908;DHT22;11620;50.050;8.690;2023-04-09T08:18:15;8.50;99.90
22908;DHT22;11620;50.050;8.690;2023-04-09T08:21:03;8.60;99.90
22908;DHT22;11620;50.050;8.690;2023-04-09T08:23:50;8.70;99.90
22908;DHT22;11620;50.050;8.690;2023-04-09T08:26:40;9.40;99.90
22908;DHT22;11620;50.050;8.690;2023-04-09T08:29:27;9.60;99.90
22908;DHT22;11620;50.050;8.690;2023-04-09T08:32:13;9.60;99.90
22908;DHT22;11620;50.050;8.690;2023-04-09T08:34:59;9.60;99.90
22908;DHT22;11620;50.050;8.690;2023-04-09T08:37:46;9.50;99.90
22908;DHT22;11620;50.050;8.690;2023-04-09T08:40:36;9.50;99.90
22908;DHT22;11620;50.050;8.690;2023-04-09T08:43:23;9.50;99.90
22908;DHT22;11620;50.050;8.690;2023-04-09T08:45:50;9.60;99.90
22908;DHT22;11620;50.050;8.690;2023-04-09T08:48:17;9.60;99.90
22908;DHT22;11620;50.050;8.690;2023-04-09T08:50:44;9.70;99.90
22908;DHT22;11620;50.050;8.690;2023-04-09T08:53:11;9.80;99.90
22908;DHT22;11620;50.050;8.690;2023-04-09T08:55:38;9.80;99.90
22908;DHT22;11620;50.050;8.690;2023-04-09T08:58:04;10.00;99.90
22908;DHT22;11620;50.050;8.690;2023-04-09T09:00:32;10.00;99.90
22908;DHT22;11620;50.050;8.690;2023-04-09T09:03:09;9.90;99.90
22908;DHT22;11620;50.050;8.690;2023-04-09T09:08:06;9.60;99.90
22908;DHT22;11620;50.050;8.690;2023-04-09T09:10:44;9.60;99.90
22908;DHT22;11620;50.050;8.690;2023-04-09T09:13:26;9.60;99.90
22908;DHT22;11620;50.050;8.690;2023-04-09T09:16:12;9.60;99.90
22908;DHT22;11620;50.050;8.690;2023-04-09T09:18:40;9.70;99.90
22908;DHT22;11620;50.050;8.690;2023-04-09T09:21:14;9.70;99.90
22908;DHT22;11620;50.050;8.690;2023-04-09T09:23:41;9.70;99.90
22908;DHT22;11620;50.050;8.690;2023-04-09T09:26:15;9.70;99.90
22908;DHT22;11620;50.050;8.690;2023-04-09T09:28:42;9.80;99.90
22908;DHT22;11620;50.050;8.690;2023-04-09T09:31:08;9.90;99.90
22908;DHT22;11620;50.050;8.690;2023-04-09T09:33:35;9.90;99.90
22908;DHT22;11620;50.050;8.690;2023-04-09T09:36:01;10.10;99.90
22908;DHT22;11620;50.050;8.690;2023-04-09T09:38:29;10.40;99.90
22908;DHT22;11620;50.050;8.690;2023-04-09T09:41:17;10.60;99.90
22908;DHT22;11620;50.050;8.690;2023-04-09T09:44:06;10.90;99.90
22908;DHT22;11620;50.050;8.690;2023-04-09T09:46:52;10.90;99.90
22908;DHT22;11620;50.050;8.690;2023-04-09T09:49:39;11.30;99.90
22908;DHT22;11620;50.050;8.690;2023-04-09T09:52:26;11.20;99.90
22908;DHT22;11620;50.050;8.690;2023-04-09T09:55:13;11.30;99.90
22908;DHT22;11620;50.050;8.690;2023-04-09T09:58:02;11.60;99.90
22908;DHT22;11620;50.050;8.690;2023-04-09T10:00:51;12.20;99.90
22908;DHT22;11620;50.050;8.690;2023-04-09T10:03:39;12.00;99.90
22908;DHT22;11620;50.050;8.690;2023-04-09T10:06:25;12.30;99.90
22908;DHT22;11620;50.050;8.690;2023-04-09T10:09:12;12.40;99.90
22908;DHT22;11620;50.050;8.690;2023-04-09T10:11:59;12.70;99.90
22908;DHT22;11620;50.050;8.690;2023-04-09T10:14:46;12.60;99.90
22908;DHT22;11620;50.050;8.690;2023-04-09T10:17:32;12.70;99.90
22908;DHT22;11620;50.050;8.690;2023-04-09T10:20:25;12.40;99.90
22908;DHT22;11620;50.050;8.690;2023-04-09T10:23:21;12.30;99.90
22908;DHT22;11620;50.050;8.690;2023-04-09T10:26:09;12.20;99.90
22908;DHT22;11620;50.050;8.690;2023-04-09T10:29:10;12.30;99.90
22908;DHT22;11620;50.050;8.690;2023-04-09T10:32:05;12.20;99.90
22908;DHT22;11620;50.050;8.690;2023-04-09T10:34:55;12.20;99.90
22908;DHT22;11620;50.050;8.690;2023-04-09T10:37:47;12.00;99.90
22908;DHT22;11620;50.050;8.690;2023-04-09T10:40:46;12.20;99.90
22908;DHT22;11620;50.050;8.690;2023-04-09T10:43:35;12.20;99.90
22908;DHT22;11620;50.050;8.690;2023-04-09T10:49:18;12.20;99.90
22908;DHT22;11620;50.050;8.690;2023-04-09T10:52:06;12.20;99.90
22908;DHT22;11620;50.050;8.690;2023-04-09T10:54:53;12.10;99.90
22908;DHT22;11620;50.050;8.690;2023-04-09T10:57:41;11.80;99.90
22908;DHT22;11620;50.050;8.690;2023-04-09T11:00:28;11.80;99.90
22908;DHT22;11620;50.050;8.690;2023-04-09T11:03:21;11.80;99.90
22908;DHT22;11620;50.050;8.690;2023-04-09T11:06:08;11.70;99.90
22908;DHT22;11620;50.050;8.690;2023-04-09T11:09:00;11.60;99.90
22908;DHT22;11620;50.050;8.690;2023-04-09T11:11:53;11.70;99.90
22908;DHT22;11620;50.050;8.690;2023-04-09T11:14:39;11.40;99.90
22908;DHT22;11620;50.050;8.690;2023-04-09T11:17:26;11.40;99.90
22908;DHT22;11620;50.050;8.690;2023-04-09T11:20:14;11.40;99.90
22908;DHT22;11620;50.050;8.690;2023-04-09T11:23:01;11.20;99.90
22908;DHT22;11620;50.050;8.690;2023-04-09T11:25:49;11.10;99.90
22908;DHT22;11620;50.050;8.690;2023-04-09T11:28:36;11.30;99.90
22908;DHT22;11620;50.050;8.690;2023-04-09T11:31:26;11.60;99.90
22908;DHT22;11620;50.050;8.690;2023-04-09T11:34:14;12.00;99.90
22908;DHT22;11620;50.050;8.690;2023-04-09T11:37:00;12.10;99.90
22908;DHT22;11620;50.050;8.690;2023-04-09T11:39:52;11.90;99.90
22908;DHT22;11620;50.050;8.690;2023-04-09T11:42:39;12.00;99.90
22908;DHT22;11620;50.050;8.690;2023-04-09T11:45:27;11.90;99.90
22908;DHT22;11620;50.050;8.690;2023-04-09T11:48:14;12.20;99.90
22908;DHT22;11620;50.050;8.690;2023-04-09T11:51:03;12.50;99.90
22908;DHT22;11620;50.050;8.690;2023-04-09T11:53:49;12.70;99.90
22908;DHT22;11620;50.050;8.690;2023-04-09T11:56:15;12.90;99.90
22908;DHT22;11620;50.050;8.690;2023-04-09T11:58:48;13.00;99.90
22908;DHT22;11620;50.050;8.690;2023-04-09T12:01:14;12.90;99.90
22908;DHT22;11620;50.050;8.690;2023-04-09T12:03:41;13.00;99.90
22908;DHT22;11620;50.050;8.690;2023-04-09T12:06:07;13.00;99.90
22908;DHT22;11620;50.050;8.690;2023-04-09T12:08:34;13.10;99.90
22908;DHT22;11620;50.050;8.690;2023-04-09T12:11:11;13.20;99.90
22908;DHT22;11620;50.050;8.690;2023-04-09T12:13:37;13.40;99.90
22908;DHT22;11620;50.050;8.690;2023-04-09T12:16:08;13.50;99.90
22908;DHT22;11620;50.050;8.690;2023-04-09T12:18:37;13.60;99.90
22908;DHT22;11620;50.050;8.690;2023-04-09T12:21:04;13.70;99.90
22908;DHT22;11620;50.050;8.690;2023-04-09T12:23:31;13.50;99.90
22908;DHT22;11620;50.050;8.690;2023-04-09T12:25:58;13.30;99.90
22908;DHT22;11620;50.050;8.690;2023-04-09T12:28:27;12.90;99.90
22908;DHT22;11620;50.050;8.690;2023-04-09T12:31:14;12.70;99.90
22908;DHT22;11620;50.050;8.690;2023-04-09T12:34:00;12.50;99.90
22908;DHT22;11620;50.050;8.690;2023-04-09T12:36:46;12.60;99.90
22908;DHT22;11620;50.050;8.690;2023-04-09T12:39:33;12.20;99.90
22908;DHT22;11620;50.050;8.690;2023-04-09T12:42:19;12.30;99.90
22908;DHT22;11620;50.050;8.690;2023-04-09T12:45:07;12.20;99.90
22908;DHT22;11620;50.050;8.690;2023-04-09T12:47:54;12.10;99.90
22908;DHT22;11620;50.050;8.690;2023-04-09T12:50:40;12.30;99.90
22908;DHT22;11620;50.050;8.690;2023-04-09T12:53:30;12.80;99.90
22908;DHT22;11620;50.050;8.690;2023-04-09T12:56:16;13.00;99.90
22908;DHT22;11620;50.050;8.690;2023-04-09T12:59:02;13.30;99.90
22908;DHT22;11620;50.050;8.690;2023-04-09T13:01:49;13.20;99.90
22908;DHT22;11620;50.050;8.690;2023-04-09T13:04:35;13.30;99.90
22908;DHT22;11620;50.050;8.690;2023-04-09T13:07:22;13.40;99.90
22908;DHT22;11620;50.050;8.690;2023-04-09T13:10:08;13.30;99.90
22908;DHT22;11620;50.050;8.690;2023-04-09T13:12:55;13.40;99.90
22908;DHT22;11620;50.050;8.690;2023-04-09T13:15:41;13.40;99.90
22908;DHT22;11620;50.050;8.690;2023-04-09T13:18:31;13.50;99.90
22908;DHT22;11620;50.050;8.690;2023-04-09T13:21:17;13.60;99.90
22908;DHT22;11620;50.050;8.690;2023-04-09T13:24:04;13.40;99.90
22908;DHT22;11620;50.050;8.690;2023-04-09T13:26:50;13.20;99.90
22908;DHT22;11620;50.050;8.690;2023-04-09T13:29:37;12.90;99.90
22908;DHT22;11620;50.050;8.690;2023-04-09T13:32:24;13.20;99.90
22908;DHT22;11620;50.050;8.690;2023-04-09T13:35:10;13.70;99.90
22908;DHT22;11620;50.050;8.690;2023-04-09T13:37:56;13.70;99.90
22908;DHT22;11620;50.050;8.690;2023-04-09T13:40:43;13.80;99.90
22908;DHT22;11620;50.050;8.690;2023-04-09T13:43:30;13.90;99.90
22908;DHT22;11620;50.050;8.690;2023-04-09T13:46:16;14.10;99.90
22908;DHT22;11620;50.050;8.690;2023-04-09T13:49:02;14.30;99.90
22908;DHT22;11620;50.050;8.690;2023-04-09T13:51:49;14.30;99.90
22908;DHT22;11620;50.050;8.690;2023-04-09T13:54:36;14.40;99.90
22908;DHT22;11620;50.050;8.690;2023-04-09T13:57:22;14.60;99.90
22908;DHT22;11620;50.050;8.690;2023-04-09T14:00:09;14.70;99.90
22908;DHT22;11620;50.050;8.690;2023-04-09T14:02:55;15.10;99.90
22908;DHT22;11620;50.050;8.690;2023-04-09T14:05:41;15.10;99.90
22908;DHT22;11620;50.050;8.690;2023-04-09T14:08:28;15.10;99.90
22908;DHT22;11620;50.050;8.690;2023-04-09T14:11:15;15.10;99.90
22908;DHT22;11620;50.050;8.690;2023-04-09T14:14:02;14.70;99.90
22908;DHT22;11620;50.050;8.690;2023-04-09T14:16:48;14.70;99.90
22908;DHT22;11620;50.050;8.690;2023-04-09T14:19:35;14.80;99.90
22908;DHT22;11620;50.050;8.690;2023-04-09T14:22:21;14.80;99.90
22908;DHT22;11620;50.050;8.690;2023-04-09T14:25:08;14.60;99.90
22908;DHT22;11620;50.050;8.690;2023-04-09T14:27:55;14.40;99.90
22908;DHT22;11620;50.050;8.690;2023-04-09T14:30:42;14.40;99.90
22908;DHT22;11620;50.050;8.690;2023-04-09T14:33:29;14.50;99.90
22908;DHT22;11620;50.050;8.690;2023-04-09T14:36:16;14.50;99.90
22908;DHT22;11620;50.050;8.690;2023-04-09T14:39:02;14.60;99.90
22908;DHT22;11620;50.050;8.690;2023-04-09T14:41:49;14.70;99.90
22908;DHT22;11620;50.050;8.690;2023-04-09T14:44:35;14.70;99.90
22908;DHT22;11620;50.050;8.690;2023-04-09T14:47:21;14.80;99.90
22908;DHT22;11620;50.050;8.690;2023-04-09T14:50:08;15.10;99.90
22908;DHT22;11620;50.050;8.690;2023-04-09T14:52:56;15.20;99.90
22908;DHT22;11620;50.050;8.690;2023-04-09T14:55:42;15.00;99.90
22908;DHT22;11620;50.050;8.690;2023-04-09T14:58:29;15.10;99.90
22908;DHT22;11620;50.050;8.690;2023-04-09T15:01:15;14.80;99.90
22908;DHT22;11620;50.050;8.690;2023-04-09T15:04:01;14.60;99.90
22908;DHT22;11620;50.050;8.690;2023-04-09T15:06:48;14.60;99.90
22908;DHT22;11620;50.050;8.690;2023-04-09T15:09:34;14.70;99.90
22908;DHT22;11620;50.050;8.690;2023-04-09T15:12:20;14.80;99.90
22908;DHT22;11620;50.050;8.690;2023-04-09T15:15:08;14.90;99.90
22908;DHT22;11620;50.050;8.690;2023-04-09T15:17:54;15.20;99.90
22908;DHT22;11620;50.050;8.690;2023-04-09T15:20:41;15.40;99.90
22908;DHT22;11620;50.050;8.690;2023-04-09T15:23:28;15.10;99.90
22908;DHT22;11620;50.050;8.690;2023-04-09T15:26:14;15.20;99.90
22908;DHT22;11620;50.050;8.690;2023-04-09T15:29:04;15.10;99.90
22908;DHT22;11620;50.050;8.690;2023-04-09T15:31:52;15.00;99.90
22908;DHT22;11620;50.050;8.690;2023-04-09T15:34:38;14.80;99.90
22908;DHT22;11620;50.050;8.690;2023-04-09T15:37:24;14.90;99.90
22908;DHT22;11620;50.050;8.690;2023-04-09T15:40:11;14.70;99.90
22908;DHT22;11620;50.050;8.690;2023-04-09T15:42:57;14.60;99.90
22908;DHT22;11620;50.050;8.690;2023-04-09T15:45:44;14.80;99.90
22908;DHT22;11620;50.050;8.690;2023-04-09T15:48:31;14.70;99.90
22908;DHT22;11620;50.050;8.690;2023-04-09T15:51:17;14.60;99.90
22908;DHT22;11620;50.050;8.690;2023-04-09T15:54:04;14.50;99.90
22908;DHT22;11620;50.050;8.690;2023-04-09T15:56:50;14.40;99.90
22908;DHT22;11620;50.050;8.690;2023-04-09T15:59:37;14.30;99.90
22908;DHT22;11620;50.050;8.690;2023-04-09T16:02:23;14.20;99.90
22908;DHT22;11620;50.050;8.690;2023-04-09T16:05:09;14.10;99.90
22908;DHT22;11620;50.050;8.690;2023-04-09T16:07:56;14.10;99.90
22908;DHT22;11620;50.050;8.690;2023-04-09T16:10:42;14.00;99.90
22908;DHT22;11620;50.050;8.690;2023-04-09T16:13:29;13.90;99.90
22908;DHT22;11620;50.050;8.690;2023-04-09T16:16:15;13.80;99.90
22908;DHT22;11620;50.050;8.690;2023-04-09T16:19:02;13.80;99.90
22908;DHT22;11620;50.050;8.690;2023-04-09T16:21:48;13.70;99.90
22908;DHT22;11620;50.050;8.690;2023-04-09T16:24:34;13.90;99.90
22908;DHT22;11620;50.050;8.690;2023-04-09T16:27:21;13.90;99.90
22908;DHT22;11620;50.050;8.690;2023-04-09T16:30:07;14.00;99.90
22908;DHT22;11620;50.050;8.690;2023-04-09T16:32:53;13.90;99.90
22908;DHT22;11620;50.050;8.690;2023-04-09T16:35:40;13.70;99.90
22908;DHT22;11620;50.050;8.690;2023-04-09T16:38:27;13.50;99.90
22908;DHT22;11620;50.050;8.690;2023-04-09T16:41:14;13.30;99.90
22908;DHT22;11620;50.050;8.690;2023-04-09T16:44:00;13.20;99.90
22908;DHT22;11620;50.050;8.690;2023-04-09T16:46:47;13.00;99.90
22908;DHT22;11620;50.050;8.690;2023-04-09T16:49:34;13.10;99.90
22908;DHT22;11620;50.050;8.690;2023-04-09T16:52:20;13.30;99.90
22908;DHT22;11620;50.050;8.690;2023-04-09T16:55:07;13.20;99.90
22908;DHT22;11620;50.050;8.690;2023-04-09T16:57:53;13.20;99.90
22908;DHT22;11620;50.050;8.690;2023-04-09T17:00:41;13.20;99.90
22908;DHT22;11620;50.050;8.690;2023-04-09T17:03:28;13.10;99.90
22908;DHT22;11620;50.050;8.690;2023-04-09T17:06:14;13.00;99.90
22908;DHT22;11620;50.050;8.690;2023-04-09T17:09:01;13.00;99.90
22908;DHT22;11620;50.050;8.690;2023-04-09T17:11:50;13.10;99.90
22908;DHT22;11620;50.050;8.690;2023-04-09T17:14:38;13.00;99.90
22908;DHT22;11620;50.050;8.690;2023-04-09T17:17:26;12.90;99.90
22908;DHT22;11620;50.050;8.690;2023-04-09T17:20:13;12.90;99.90
22908;DHT22;11620;50.050;8.690;2023-04-09T17:22:59;12.90;99.90
22908;DHT22;11620;50.050;8.690;2023-04-09T17:25:45;12.90;99.90
22908;DHT22;11620;50.050;8.690;2023-04-09T17:28:32;12.80;99.90
22908;DHT22;11620;50.050;8.690;2023-04-09T17:31:18;12.70;99.90
22908;DHT22;11620;50.050;8.690;2023-04-09T17:34:08;12.80;99.90
22908;DHT22;11620;50.050;8.690;2023-04-09T17:36:55;12.80;99.90
22908;DHT22;11620;50.050;8.690;2023-04-09T17:39:44;12.70;99.90
22908;DHT22;11620;50.050;8.690;2023-04-09T17:42:31;12.80;99.90
22908;DHT22;11620;50.050;8.690;2023-04-09T17:45:17;12.90;99.90
22908;DHT22;11620;50.050;8.690;2023-04-09T17:48:03;12.90;99.90
22908;DHT22;11620;50.050;8.690;2023-04-09T17:50:50;12.80;99.90